Adams, Minnesota
Current Conditions -  °F | °C
As of 3:36 AM on Friday 19 Dec 2014 (Local Time) from KAUM Reporting Station
Overcast Overcast  
Wind Chill: 23°   Ceiling: 7000
Heat Index: 23°   Visibility: 7mi
Dew Point: 19°   Wind: 3mph
Humidity: 86%   Direction: 170°S
Pressure: 30.24"   Gusts: NA
Location:  43.57°N, 92.72°W
Report Text: KAUM 190936Z AUTO 17003KT 7SM SCT042 OVC070 M05/M07 A3024 RMK AO2
Loading
Personal Weather Stations






























Interactive Weather Map New forecast layout! Learn more

10-Day Weather Forecast

Advertisements
Track Severe Weather on mobile